createdAt,value
2022-08-03T00:00:25.392Z,3.05
2022-08-03T00:02:52.711Z,2.86
2022-08-03T00:05:20.169Z,3.04
2022-08-03T00:07:48.519Z,3.13
2022-08-03T00:10:16.757Z,3.26
2022-08-03T00:12:44.008Z,3.23
2022-08-03T00:15:16.620Z,3.24
2022-08-03T00:17:52.990Z,3.28
2022-08-03T00:20:21.077Z,3.20
2022-08-03T00:22:48.308Z,3.17
2022-08-03T00:25:15.557Z,3.23
2022-08-03T00:27:42.814Z,3.31
2022-08-03T00:30:10.076Z,3.10
2022-08-03T00:32:37.329Z,3.21
2022-08-03T00:35:12.353Z,2.97
2022-08-03T00:37:45.653Z,3.01
2022-08-03T00:40:12.924Z,3.06
2022-08-03T00:42:41.336Z,3.25
2022-08-03T00:45:08.600Z,3.07
2022-08-03T00:47:35.963Z,3.13
2022-08-03T00:50:03.212Z,3.28
2022-08-03T00:52:30.454Z,3.21
2022-08-03T00:54:57.799Z,2.95
2022-08-03T00:57:25.042Z,3.07
2022-08-03T00:59:52.280Z,3.14
2022-08-03T01:02:19.539Z,3.39
2022-08-03T01:04:46.792Z,3.12
2022-08-03T01:07:14.049Z,3.32
2022-08-03T01:09:41.297Z,3.10
2022-08-03T01:12:10.571Z,3.17
2022-08-03T01:14:37.938Z,3.20
2022-08-03T01:17:05.181Z,3.13
2022-08-03T01:19:34.423Z,3.22
2022-08-03T01:22:01.652Z,3.25
2022-08-03T01:24:28.915Z,3.05
2022-08-03T01:26:56.158Z,3.14
2022-08-03T01:29:23.411Z,3.59
2022-08-03T01:32:53.305Z,3.39
2022-08-03T01:34:37.860Z,3.33
2022-08-03T01:37:05.103Z,3.09
2022-08-03T01:39:32.350Z,3.19
2022-08-03T01:41:59.622Z,3.15
2022-08-03T01:44:30.760Z,3.25
2022-08-03T01:46:58.315Z,3.06
2022-08-03T01:49:25.608Z,3.29
2022-08-03T01:52:02.901Z,3.46
2022-08-03T01:54:32.126Z,3.07
2022-08-03T01:57:01.352Z,3.03
2022-08-03T01:59:28.603Z,3.11
2022-08-03T02:02:29.116Z,3.11
2022-08-03T02:04:43.065Z,3.06
2022-08-03T02:07:10.329Z,3.19
2022-08-03T02:09:37.571Z,3.14
2022-08-03T02:12:04.809Z,2.90
2022-08-03T02:14:32.060Z,2.91
2022-08-03T02:16:59.295Z,3.15
2022-08-03T02:19:26.566Z,3.18
2022-08-03T02:21:56.674Z,3.06
2022-08-03T02:24:28.417Z,2.82
2022-08-03T02:26:55.669Z,2.83
2022-08-03T02:29:39.457Z,2.70
2022-08-03T02:32:08.100Z,2.80
2022-08-03T02:34:35.344Z,2.71
2022-08-03T02:37:02.586Z,2.84
2022-08-03T02:39:29.846Z,2.80
2022-08-03T02:41:57.130Z,2.77
2022-08-03T02:44:24.382Z,2.88
2022-08-03T02:46:51.649Z,2.81
2022-08-03T02:49:40.595Z,2.97
2022-08-03T02:52:06.113Z,2.86
2022-08-03T02:54:39.865Z,2.89
2022-08-03T02:57:07.139Z,3.16
2022-08-03T02:59:34.380Z,3.16
2022-08-03T03:02:01.629Z,2.99
2022-08-03T03:04:32.191Z,3.12
2022-08-03T03:07:01.782Z,2.99
2022-08-03T03:09:41.960Z,3.12
2022-08-03T03:12:10.594Z,3.20
2022-08-03T03:14:37.870Z,3.18
2022-08-03T03:17:05.115Z,3.32
2022-08-03T03:19:32.367Z,3.04
2022-08-03T03:21:59.684Z,3.36
2022-08-03T03:24:26.933Z,3.15
2022-08-03T03:26:54.196Z,3.10
2022-08-03T03:29:21.450Z,2.95
2022-08-03T03:31:48.689Z,2.84
2022-08-03T03:34:15.962Z,3.06
2022-08-03T03:36:43.840Z,2.97
2022-08-03T03:39:15.343Z,3.28
2022-08-03T03:41:43.277Z,2.95
2022-08-03T03:44:10.637Z,3.08
2022-08-03T03:46:37.890Z,2.98
2022-08-03T03:49:05.221Z,2.99
2022-08-03T03:51:32.498Z,3.07
2022-08-03T03:53:59.767Z,3.01
2022-08-03T03:56:27.038Z,3.14
2022-08-03T03:58:54.272Z,2.98
2022-08-03T04:01:21.559Z,3.31
2022-08-03T04:03:49.014Z,3.17
2022-08-03T04:06:16.260Z,2.86
2022-08-03T04:08:43.510Z,2.93
2022-08-03T04:11:14.482Z,3.29
2022-08-03T04:13:41.724Z,3.15
2022-08-03T04:16:08.997Z,2.92
2022-08-03T04:18:36.236Z,3.08
2022-08-03T04:21:03.501Z,3.01
2022-08-03T04:23:30.799Z,3.15
2022-08-03T04:25:58.047Z,2.84
2022-08-03T04:28:30.578Z,2.98
2022-08-03T04:30:59.056Z,3.12
2022-08-03T04:33:26.304Z,2.93
2022-08-03T04:36:01.438Z,2.94
2022-08-03T04:38:30.337Z,2.96
2022-08-03T04:40:57.582Z,3.17
2022-08-03T04:43:24.967Z,3.36
2022-08-03T04:45:54.189Z,3.40
2022-08-03T04:48:21.435Z,2.96
2022-08-03T04:50:48.693Z,3.01
2022-08-03T04:53:15.971Z,3.32
2022-08-03T04:55:43.226Z,2.94
2022-08-03T04:58:10.466Z,2.81
2022-08-03T05:00:37.791Z,2.70
2022-08-03T05:03:20.490Z,2.79
2022-08-03T05:05:51.680Z,3.07
2022-08-03T05:08:20.572Z,2.88
2022-08-03T05:10:55.201Z,2.69
2022-08-03T05:13:22.442Z,2.95
2022-08-03T05:15:49.673Z,2.67
2022-08-03T05:18:16.934Z,3.02
2022-08-03T05:20:44.189Z,2.81
2022-08-03T05:23:11.463Z,2.86
2022-08-03T05:25:39.271Z,2.88
2022-08-03T05:28:06.647Z,2.81
2022-08-03T05:30:34.662Z,2.77
2022-08-03T05:33:02.052Z,2.81
2022-08-03T05:36:00.746Z,2.80
2022-08-03T05:38:23.897Z,2.77
2022-08-03T05:40:57.384Z,2.84
2022-08-03T05:43:42.859Z,2.79
2022-08-03T05:46:12.244Z,2.67
2022-08-03T05:48:40.148Z,2.83
2022-08-03T05:51:07.424Z,2.72
2022-08-03T05:53:34.669Z,2.62
2022-08-03T05:56:14.203Z,2.62
2022-08-03T05:58:42.910Z,2.86
2022-08-03T06:01:12.203Z,2.70
2022-08-03T06:03:39.497Z,2.73
2022-08-03T06:06:06.776Z,2.69
2022-08-03T06:08:34.016Z,2.82
2022-08-03T06:11:01.270Z,2.66
2022-08-03T06:13:28.549Z,2.60
2022-08-03T06:15:55.799Z,2.78
2022-08-03T06:18:23.056Z,2.74
2022-08-03T06:20:50.391Z,2.84
2022-08-03T06:23:19.612Z,2.61
2022-08-03T06:25:47.183Z,2.78
2022-08-03T06:28:42.492Z,2.78
2022-08-03T06:31:01.658Z,2.80
2022-08-03T06:34:30.325Z,2.93
2022-08-03T06:36:16.135Z,3.22
2022-08-03T06:38:43.394Z,3.15
2022-08-03T06:41:10.629Z,3.23
2022-08-03T06:44:03.758Z,3.19
2022-08-03T06:46:25.101Z,3.25
2022-08-03T06:48:53.354Z,3.44
2022-08-03T06:51:20.684Z,3.35
2022-08-03T06:54:07.888Z,3.58
2022-08-03T06:56:35.150Z,3.70
2022-08-03T06:59:02.419Z,3.63
2022-08-03T07:01:29.753Z,3.57
2022-08-03T07:03:57.035Z,3.60
2022-08-03T07:06:24.315Z,3.49
2022-08-03T07:08:53.600Z,3.79
2022-08-03T07:11:22.793Z,3.75
2022-08-03T07:13:50.032Z,3.76
2022-08-03T07:16:17.267Z,3.47
2022-08-03T07:18:45.163Z,3.67
2022-08-03T07:21:12.412Z,3.63
2022-08-03T07:23:39.655Z,3.37
2022-08-03T07:26:06.931Z,3.52
2022-08-03T07:28:34.168Z,3.41
2022-08-03T07:31:01.416Z,3.56
2022-08-03T07:33:28.817Z,3.63
2022-08-03T07:35:56.072Z,3.70
2022-08-03T07:38:23.334Z,3.51
2022-08-03T07:40:50.606Z,4.09
2022-08-03T07:43:17.894Z,4.08
2022-08-03T07:45:45.142Z,4.16
2022-08-03T07:48:12.784Z,4.10
2022-08-03T07:50:40.154Z,4.15
2022-08-03T07:53:07.404Z,4.04
2022-08-03T07:55:34.652Z,4.03
2022-08-03T07:58:01.926Z,4.14
2022-08-03T08:00:29.178Z,4.34
2022-08-03T08:02:56.420Z,4.30
2022-08-03T08:05:23.693Z,3.85
2022-08-03T08:07:51.885Z,4.26
2022-08-03T08:10:19.287Z,4.20
2022-08-03T08:12:46.705Z,4.15
2022-08-03T08:15:13.986Z,3.82
2022-08-03T08:17:41.247Z,4.11
2022-08-03T08:20:08.505Z,4.10
2022-08-03T08:22:36.279Z,4.24
2022-08-03T08:25:04.787Z,4.09
2022-08-03T08:28:22.325Z,4.38
2022-08-03T08:30:19.662Z,4.15
2022-08-03T08:32:46.986Z,3.97
2022-08-03T08:35:14.234Z,4.31
2022-08-03T08:37:41.503Z,4.15
2022-08-03T08:40:08.749Z,4.18
2022-08-03T08:42:35.993Z,4.46
2022-08-03T08:45:03.267Z,4.16
2022-08-03T08:47:50.856Z,4.23
2022-08-03T08:50:27.793Z,4.34
2022-08-03T08:52:57.082Z,4.13
2022-08-03T08:55:24.347Z,4.05
2022-08-03T08:57:51.615Z,4.06
2022-08-03T09:00:18.888Z,4.26
2022-08-03T09:02:46.158Z,4.40
2022-08-03T09:05:13.392Z,4.51
2022-08-03T09:07:40.644Z,4.43
2022-08-03T09:10:12.998Z,4.27
2022-08-03T09:12:42.461Z,4.45
2022-08-03T09:15:17.049Z,4.35
2022-08-03T09:17:48.997Z,4.02
2022-08-03T09:20:18.281Z,4.16
2022-08-03T09:22:47.099Z,4.29
2022-08-03T09:25:24.286Z,4.10
2022-08-03T09:27:52.424Z,4.16
2022-08-03T09:30:34.057Z,4.46
2022-08-03T09:33:02.106Z,4.02
2022-08-03T09:35:59.001Z,3.93
2022-08-03T09:38:16.569Z,4.08
2022-08-03T09:40:43.821Z,3.75
2022-08-03T09:43:11.080Z,4.04
2022-08-03T09:45:38.512Z,3.71
2022-08-03T09:48:06.033Z,3.86
2022-08-03T09:50:33.339Z,3.63
2022-08-03T09:53:00.854Z,3.89
2022-08-03T09:56:32.552Z,3.56
2022-08-03T09:58:15.395Z,3.58
2022-08-03T10:00:42.708Z,3.50
2022-08-03T10:03:10.035Z,3.94
2022-08-03T10:05:37.302Z,3.54
2022-08-03T10:08:04.572Z,3.51
2022-08-03T10:10:32.346Z,3.83
2022-08-03T10:12:59.734Z,3.28
2022-08-03T10:16:22.391Z,3.44
2022-08-03T10:18:14.313Z,3.76
2022-08-03T10:20:41.592Z,3.67
2022-08-03T10:23:08.855Z,3.24
2022-08-03T10:25:36.545Z,3.26
2022-08-03T10:28:03.819Z,3.19
2022-08-03T10:30:31.119Z,3.15
2022-08-03T10:32:58.394Z,3.42
2022-08-03T10:35:25.642Z,3.34
2022-08-03T10:37:57.109Z,3.32
2022-08-03T10:40:46.778Z,3.44
2022-08-03T10:43:11.911Z,3.29
2022-08-03T10:45:39.185Z,2.86
2022-08-03T10:48:06.592Z,2.88
2022-08-03T10:50:33.856Z,2.87
2022-08-03T10:53:01.991Z,2.96
2022-08-03T10:55:31.250Z,3.04
2022-08-03T10:57:59.237Z,2.85
2022-08-03T11:00:26.581Z,2.82
2022-08-03T11:02:53.898Z,3.08
2022-08-03T11:05:21.166Z,2.66
2022-08-03T11:07:53.089Z,2.74
2022-08-03T11:10:22.037Z,2.58
2022-08-03T11:12:49.277Z,2.90
2022-08-03T11:15:16.530Z,3.01
2022-08-03T11:17:46.635Z,2.83
2022-08-03T11:20:22.997Z,2.84
2022-08-03T11:22:50.262Z,2.89
2022-08-03T11:25:54.318Z,2.43
2022-08-03T11:28:04.729Z,2.97
2022-08-03T11:30:31.996Z,2.70
2022-08-03T11:32:59.383Z,2.48
2022-08-03T11:35:26.632Z,2.45
2022-08-03T11:38:03.353Z,2.54
2022-08-03T11:40:32.678Z,2.61
2022-08-03T11:42:59.917Z,2.53
2022-08-03T11:45:27.156Z,2.64
2022-08-03T11:47:54.426Z,2.38
2022-08-03T11:50:21.717Z,2.64
2022-08-03T11:52:48.973Z,2.51
2022-08-03T11:55:16.349Z,2.72
2022-08-03T11:59:18.753Z,2.69
2022-08-03T12:00:32.818Z,2.48
2022-08-03T12:03:00.299Z,2.20
2022-08-03T12:05:27.605Z,1.79
2022-08-03T12:08:06.167Z,2.14
2022-08-03T12:10:34.050Z,2.26
2022-08-03T12:13:03.288Z,2.04
2022-08-03T12:15:30.596Z,2.03
2022-08-03T12:17:58.201Z,2.11
2022-08-03T12:20:31.314Z,2.02
2022-08-03T12:23:02.610Z,2.06
2022-08-03T12:25:39.247Z,2.02
2022-08-03T12:28:37.459Z,1.99
2022-08-03T12:30:54.981Z,2.27
2022-08-03T12:33:22.329Z,2.01
2022-08-03T12:35:52.521Z,1.89
2022-08-03T12:38:20.712Z,1.96
2022-08-03T12:40:47.993Z,1.59
2022-08-03T12:43:15.224Z,1.75
2022-08-03T12:45:42.473Z,1.77
2022-08-03T12:48:09.750Z,1.82
2022-08-03T12:50:37.000Z,1.77
2022-08-03T12:53:04.248Z,1.65
2022-08-03T12:55:31.617Z,1.71
2022-08-03T12:58:19.151Z,1.97
2022-08-03T13:00:46.451Z,1.40
2022-08-03T13:03:41.944Z,2.02
2022-08-03T13:06:01.803Z,1.51
2022-08-03T13:08:29.051Z,1.62
2022-08-03T13:10:56.297Z,1.57
2022-08-03T13:13:23.556Z,1.33
2022-08-03T13:15:50.810Z,1.63
2022-08-03T13:18:18.062Z,1.59
2022-08-03T13:20:45.461Z,1.46
2022-08-03T13:23:21.973Z,1.60
2022-08-03T13:25:55.555Z,1.76
2022-08-03T13:28:23.463Z,1.56
2022-08-03T13:30:50.762Z,1.78
2022-08-03T13:33:18.031Z,1.87
2022-08-03T13:35:45.305Z,1.63
2022-08-03T13:38:12.632Z,1.83
2022-08-03T13:40:42.690Z,1.89
2022-08-03T13:43:13.354Z,1.88
2022-08-03T13:45:40.590Z,1.90
2022-08-03T13:48:07.839Z,1.96
2022-08-03T13:50:37.561Z,1.87
2022-08-03T13:53:07.069Z,1.95
2022-08-03T13:55:34.336Z,1.72
2022-08-03T13:58:07.275Z,1.71
2022-08-03T14:00:34.876Z,1.85
2022-08-03T14:03:13.702Z,1.89
2022-08-03T14:05:41.603Z,1.89
2022-08-03T14:08:08.906Z,1.82
2022-08-03T14:10:36.150Z,1.89
2022-08-03T14:13:03.402Z,2.20
2022-08-03T14:15:30.666Z,2.10
2022-08-03T14:17:58.653Z,2.09
2022-08-03T14:20:38.110Z,2.11
2022-08-03T14:23:13.408Z,2.05
2022-08-03T14:25:49.963Z,1.94
2022-08-03T14:28:19.403Z,2.08
2022-08-03T14:30:46.671Z,1.95
2022-08-03T14:33:13.908Z,2.07
2022-08-03T14:35:41.168Z,2.00
2022-08-03T14:38:08.436Z,2.23
2022-08-03T14:40:35.686Z,2.26
2022-08-03T14:43:02.961Z,2.18
2022-08-03T14:45:30.218Z,2.33
2022-08-03T14:50:27.778Z,2.35
2022-08-03T14:50:50.684Z,2.36
2022-08-03T14:53:18.146Z,2.29
2022-08-03T14:55:50.690Z,2.39
2022-08-03T14:58:19.795Z,1.91
2022-08-03T15:00:48.187Z,1.91
2022-08-03T15:03:16.723Z,2.19
2022-08-03T15:05:44.586Z,2.10
2022-08-03T15:08:11.982Z,2.04
2022-08-03T15:10:44.154Z,1.93
2022-08-03T15:13:12.123Z,2.07
2022-08-03T15:15:39.393Z,2.07
2022-08-03T15:18:06.646Z,2.11
2022-08-03T15:20:43.709Z,2.59
2022-08-03T15:23:11.465Z,2.22
2022-08-03T15:26:06.447Z,2.15
2022-08-03T15:28:26.035Z,2.18
2022-08-03T15:30:53.331Z,2.07
2022-08-03T15:33:20.571Z,1.99
2022-08-03T15:35:47.945Z,1.56
2022-08-03T15:38:15.292Z,1.64
2022-08-03T15:40:42.572Z,1.48
2022-08-03T15:43:09.878Z,1.34
2022-08-03T15:45:37.214Z,1.46
2022-08-03T15:48:04.543Z,1.45
2022-08-03T15:50:31.892Z,1.45
2022-08-03T15:52:59.129Z,1.16
2022-08-03T15:55:26.411Z,1.22
2022-08-03T15:59:10.143Z,1.46
2022-08-03T16:00:40.905Z,1.23
2022-08-03T16:03:08.171Z,1.27
2022-08-03T16:05:35.455Z,1.43
2022-08-03T16:08:05.107Z,1.45
2022-08-03T16:10:35.046Z,1.32
2022-08-03T16:13:02.283Z,1.29
2022-08-03T16:15:29.540Z,1.27
2022-08-03T16:17:56.770Z,1.17
2022-08-03T16:20:31.275Z,1.24
2022-08-03T16:23:07.731Z,1.36
2022-08-03T16:25:38.949Z,1.29
2022-08-03T16:28:13.040Z,1.49
2022-08-03T16:30:40.978Z,1.46
2022-08-03T16:33:08.255Z,1.60
2022-08-03T16:35:35.507Z,1.70
2022-08-03T16:38:06.470Z,1.52
2022-08-03T16:40:36.634Z,1.45
2022-08-03T16:43:03.913Z,1.51
2022-08-03T16:45:31.148Z,1.58
2022-08-03T16:48:01.809Z,1.59
2022-08-03T16:50:33.289Z,1.83
2022-08-03T16:53:00.552Z,1.86
2022-08-03T16:55:48.404Z,1.85
2022-08-03T16:58:15.019Z,2.01
2022-08-03T17:00:42.279Z,2.09
2022-08-03T17:03:19.005Z,1.85
2022-08-03T17:05:49.536Z,2.04
2022-08-03T17:08:26.338Z,2.11
2022-08-03T17:10:54.647Z,2.33
2022-08-03T17:13:22.734Z,2.40
2022-08-03T17:15:58.110Z,2.09
2022-08-03T17:18:28.380Z,2.37
2022-08-03T17:20:55.628Z,2.21
2022-08-03T17:23:35.565Z,2.29
2022-08-03T17:26:09.763Z,2.32
2022-08-03T17:28:48.573Z,2.20
2022-08-03T17:31:22.844Z,2.18
2022-08-03T17:33:58.177Z,2.34
2022-08-03T17:36:47.632Z,2.23
2022-08-03T17:39:15.084Z,2.13
2022-08-03T17:41:50.091Z,2.25
2022-08-03T17:44:31.144Z,2.08
2022-08-03T17:47:04.912Z,2.43
2022-08-03T17:49:39.829Z,2.18
2022-08-03T17:52:10.034Z,2.26
2022-08-03T17:55:50.347Z,2.31
2022-08-03T17:57:32.005Z,2.41
2022-08-03T18:00:19.198Z,2.18
2022-08-03T18:02:50.297Z,2.19
2022-08-03T18:05:18.801Z,2.09
2022-08-03T18:07:49.289Z,2.22
2022-08-03T18:10:29.095Z,2.23
2022-08-03T18:12:56.353Z,2.19
2022-08-03T18:15:23.598Z,2.16
2022-08-03T18:17:54.978Z,2.15
2022-08-03T18:20:32.243Z,2.19
2022-08-03T18:23:04.849Z,2.07
2022-08-03T18:28:23.255Z,2.03
2022-08-03T18:30:54.500Z,2.01
2022-08-03T18:34:19.774Z,2.00
2022-08-03T18:36:09.609Z,2.18
2022-08-03T18:38:36.848Z,2.05
2022-08-03T18:41:07.044Z,2.07
2022-08-03T18:43:47.200Z,2.10
2022-08-03T18:46:32.691Z,2.27
2022-08-03T18:49:08.338Z,2.17
2022-08-03T18:51:46.448Z,2.19
2022-08-03T18:54:45.623Z,2.22
2022-08-03T18:57:02.281Z,2.19
2022-08-03T18:59:30.764Z,2.24
2022-08-03T19:02:01.383Z,2.42
2022-08-03T19:04:31.500Z,2.45
2022-08-03T19:06:59.206Z,2.35
2022-08-03T19:09:27.985Z,2.52
2022-08-03T19:14:42.756Z,2.24
2022-08-03T19:17:11.164Z,2.34
2022-08-03T19:19:43.540Z,2.44
2022-08-03T19:22:11.862Z,2.39
2022-08-03T19:24:43.156Z,2.57
2022-08-03T19:27:10.741Z,2.35
2022-08-03T19:29:58.427Z,2.43
2022-08-03T19:32:25.377Z,2.50
2022-08-03T19:34:52.620Z,2.29
2022-08-03T19:37:19.911Z,2.39
2022-08-03T19:39:56.568Z,2.34
2022-08-03T19:42:24.364Z,2.24
2022-08-03T19:44:56.263Z,2.46
2022-08-03T19:47:23.510Z,2.42
2022-08-03T19:50:05.815Z,2.39
2022-08-03T19:52:37.972Z,2.35
2022-08-03T19:55:05.227Z,2.26
2022-08-03T19:57:32.489Z,2.42
2022-08-03T19:59:59.740Z,2.36
2022-08-03T20:02:31.289Z,2.41
2022-08-03T20:05:00.093Z,2.29
2022-08-03T20:07:27.690Z,2.26
2022-08-03T20:09:56.735Z,2.23
2022-08-03T20:12:27.567Z,2.27
2022-08-03T20:15:11.385Z,2.19
2022-08-03T20:17:54.348Z,2.17
2022-08-03T20:20:24.503Z,2.32
2022-08-03T20:22:52.510Z,2.54
2022-08-03T20:25:20.700Z,2.59
2022-08-03T20:28:08.200Z,2.39
2022-08-03T20:30:35.635Z,2.31
2022-08-03T20:33:02.902Z,2.33
2022-08-03T20:35:30.896Z,2.11
2022-08-03T20:37:59.196Z,2.28
2022-08-03T20:40:27.557Z,2.23
2022-08-03T20:42:54.999Z,2.27
2022-08-03T20:46:00.171Z,2.26
2022-08-03T20:48:09.884Z,2.37
2022-08-03T20:50:37.113Z,2.49
2022-08-03T20:53:04.919Z,2.28
2022-08-03T20:55:48.294Z,2.39
2022-08-03T20:58:20.549Z,2.22
2022-08-03T21:00:51.448Z,2.30
2022-08-03T21:03:19.332Z,2.11
2022-08-03T21:05:48.046Z,2.33
2022-08-03T21:08:19.175Z,2.19
2022-08-03T21:10:46.447Z,2.19
2022-08-03T21:12:58.031Z,2.16
2022-08-03T21:13:01.459Z,2.35
2022-08-03T21:13:18.535Z,2.31
2022-08-03T21:16:02.368Z,2.31
2022-08-03T21:18:33.905Z,2.13
2022-08-03T21:21:01.186Z,2.15
2022-08-03T21:23:35.173Z,2.12
2022-08-03T21:26:15.646Z,2.27
2022-08-03T21:28:42.926Z,2.07
2022-08-03T21:31:10.171Z,2.21
2022-08-03T21:33:37.489Z,2.41
2022-08-03T21:36:08.159Z,2.37
2022-08-03T21:38:35.437Z,2.19
2022-08-03T21:41:02.875Z,2.41
2022-08-03T21:43:30.142Z,2.54
2022-08-03T21:45:57.385Z,2.44
2022-08-03T21:48:24.649Z,2.38
2022-08-03T21:50:51.906Z,2.52
2022-08-03T21:53:19.175Z,2.63
2022-08-03T21:55:46.428Z,2.64
2022-08-03T21:58:13.674Z,2.65
2022-08-03T22:00:40.950Z,2.68
2022-08-03T22:03:15.278Z,2.62
2022-08-03T22:05:45.162Z,2.66
2022-08-03T22:08:12.404Z,2.85
2022-08-03T22:10:39.674Z,2.65
2022-08-03T22:13:06.923Z,2.63
2022-08-03T22:15:34.166Z,2.78
2022-08-03T22:18:01.535Z,2.63
2022-08-03T22:20:28.780Z,2.86
2022-08-03T22:22:56.750Z,2.74
2022-08-03T22:25:26.256Z,2.80
2022-08-03T22:27:53.516Z,2.85
2022-08-03T22:30:20.761Z,2.92
2022-08-03T22:32:48.039Z,2.98
2022-08-03T22:35:15.291Z,2.99
2022-08-03T22:37:42.544Z,2.98
2022-08-03T22:40:10.056Z,2.88
2022-08-03T22:42:37.411Z,2.92
2022-08-03T22:45:04.652Z,3.10
2022-08-03T22:47:31.977Z,3.12
2022-08-03T22:50:32.345Z,3.20
2022-08-03T22:52:46.619Z,3.05
2022-08-03T22:55:24.566Z,3.00
2022-08-03T22:57:55.896Z,3.43
2022-08-03T23:00:23.488Z,3.14
2022-08-03T23:02:50.799Z,3.15
2022-08-03T23:06:02.460Z,2.93
2022-08-03T23:08:05.353Z,3.29
2022-08-03T23:10:32.615Z,3.06
2022-08-03T23:12:59.874Z,3.08
2022-08-03T23:15:27.130Z,3.26
2022-08-03T23:17:58.313Z,3.45
2022-08-03T23:20:26.481Z,3.21
2022-08-03T23:22:54.129Z,3.16
2022-08-03T23:25:21.538Z,2.96
2022-08-03T23:27:48.986Z,3.24
2022-08-03T23:30:33.015Z,3.58
2022-08-03T23:33:00.260Z,3.35
2022-08-03T23:36:28.935Z,3.38
2022-08-03T23:38:22.052Z,3.64
2022-08-03T23:40:51.390Z,3.46
2022-08-03T23:43:44.830Z,3.35
2022-08-03T23:46:06.141Z,3.50
2022-08-03T23:48:33.406Z,3.21
2022-08-03T23:51:00.654Z,3.35
2022-08-03T23:53:27.914Z,3.51
2022-08-03T23:55:55.171Z,3.51
2022-08-03T23:58:22.411Z,3.48
